Time;durP1;ratioP1;P1;durP2;ratioP2;P2;SDS_P1;SDS_P2;PMS_P1;PMS_P2;Temp;Humidity;BMP_temperature;BMP_pressure;BME280_temperature;BME280_humidity;BME280_pressure;Samples;Min_cycle;Max_cycle;Signal;HPM_P1;HPM_P2
2023/08/29 00:02:15;;;;;;;11.40;5.10;;;;;;;14.47;100.00;99968.98;214225;1287;139916;-89
2023/08/29 00:07:15;;;;;;;7.00;4.50;;;;;;;14.43;100.00;99969.90;214393;1291;138900;-90
2023/08/29 00:12:16;;;;;;;7.40;4.40;;;;;;;14.42;100.00;99946.90;213775;1287;140645;-90
2023/08/29 00:17:17;;;;;;;8.40;4.60;;;;;;;14.40;100.00;99948.82;214547;1288;139182;-91
2023/08/29 00:22:17;;;;;;;9.70;5.20;;;;;;;14.39;100.00;99917.36;213954;1287;140762;-91
2023/08/29 00:27:21;;;;;;;7.60;4.60;;;;;;;14.38;100.00;99890.31;214526;1288;138887;-90
2023/08/29 00:32:22;;;;;;;8.50;4.80;;;;;;;14.36;100.00;99887.17;214699;1287;141177;-90
2023/08/29 00:37:22;;;;;;;7.50;4.50;;;;;;;14.36;100.00;99862.65;214612;1288;138976;-90
2023/08/29 00:42:23;;;;;;;6.90;4.10;;;;;;;14.35;100.00;99829.93;214051;1287;140737;-90
2023/08/29 00:47:24;;;;;;;9.60;4.80;;;;;;;14.33;100.00;99823.23;214872;1287;138713;-90
2023/08/29 00:52:24;;;;;;;6.70;3.60;;;;;;;14.32;100.00;99837.33;214249;1289;140613;-89
2023/08/29 00:57:25;;;;;;;6.80;3.80;;;;;;;14.30;100.00;99834.34;214681;1288;138810;-89
2023/08/29 01:02:26;;;;;;;7.20;4.00;;;;;;;14.28;100.00;99855.40;214210;1286;141765;-88
2023/08/29 01:07:26;;;;;;;7.60;3.60;;;;;;;14.29;100.00;99898.17;214698;1288;138575;-88
2023/08/29 01:13:01;;;;;;;4.90;3.00;;;;;;;14.29;100.00;99908.54;214253;1288;140645;-88
2023/08/29 01:18:04;;;;;;;9.20;3.90;;;;;;;14.30;100.00;99908.77;214481;1290;138648;-87
2023/08/29 01:23:19;;;;;;;6.60;3.40;;;;;;;14.31;100.00;99908.59;214086;1289;141649;-88
2023/08/29 01:28:20;;;;;;;6.60;3.40;;;;;;;14.33;100.00;99901.13;214556;1286;139272;-88
2023/08/29 01:33:21;;;;;;;5.50;3.30;;;;;;;14.35;100.00;99913.52;214194;1288;139419;-87
2023/08/29 01:38:22;;;;;;;5.80;3.20;;;;;;;14.37;100.00;99918.17;214827;1290;98123;-88
2023/08/29 01:43:23;;;;;;;6.20;3.30;;;;;;;14.37;100.00;99883.38;214247;1291;141485;-90
2023/08/29 01:48:23;;;;;;;5.90;3.30;;;;;;;14.34;100.00;99845.84;214776;1286;139103;-91
2023/08/29 01:53:24;;;;;;;6.80;3.80;;;;;;;14.33;100.00;99837.79;214168;1289;142102;-90
2023/08/29 01:58:25;;;;;;;7.10;3.80;;;;;;;14.32;100.00;99817.80;214448;1286;139282;-92
2023/08/29 02:03:26;;;;;;;7.00;3.60;;;;;;;14.35;100.00;99833.17;214547;1285;141957;-91
2023/08/29 02:08:27;;;;;;;9.10;4.10;;;;;;;14.34;100.00;99836.04;214714;1291;102156;-91
2023/08/29 02:13:28;;;;;;;6.70;3.80;;;;;;;14.31;100.00;99851.50;214067;1286;141413;-92
2023/08/29 02:18:29;;;;;;;5.80;3.20;;;;;;;14.30;100.00;99878.64;214677;1286;139481;-91
2023/08/29 02:23:31;;;;;;;8.50;3.70;;;;;;;14.29;100.00;99883.54;214161;1286;140518;-90
2023/08/29 02:28:36;;;;;;;6.90;4.10;;;;;;;14.33;100.00;99937.69;214290;1286;139311;-92
2023/08/29 02:33:38;;;;;;;7.10;3.80;;;;;;;14.36;100.00;99981.23;213819;1286;140214;-88
2023/08/29 02:38:39;;;;;;;6.20;3.30;;;;;;;14.33;100.00;99913.08;214531;1288;138808;-88
2023/08/29 02:43:40;;;;;;;6.60;3.40;;;;;;;14.35;100.00;99949.92;213793;1285;140497;-89
2023/08/29 02:48:40;;;;;;;7.20;3.60;;;;;;;14.37;100.00;99929.16;214347;1291;139046;-90
2023/08/29 02:53:41;;;;;;;7.30;3.70;;;;;;;14.39;100.00;99916.80;213863;1286;141497;-90
2023/08/29 02:58:42;;;;;;;5.90;3.10;;;;;;;14.41;100.00;99900.48;214539;1286;139096;-90
2023/08/29 03:03:43;;;;;;;6.00;3.10;;;;;;;14.39;100.00;99821.81;213935;1287;141011;-90
2023/08/29 03:08:44;;;;;;;7.20;3.90;;;;;;;14.34;100.00;99691.39;214553;1290;139296;-89
2023/08/29 03:13:46;;;;;;;7.70;4.50;;;;;;;14.25;100.00;99575.12;213959;1288;141495;-92
2023/08/29 03:18:46;;;;;;;7.10;4.50;;;;;;;14.19;100.00;99609.36;214604;1288;138612;-91
2023/08/29 03:23:47;;;;;;;8.70;4.80;;;;;;;14.17;100.00;99672.02;213962;1290;140843;-90
2023/08/29 03:28:48;;;;;;;7.60;4.60;;;;;;;14.17;100.00;99679.84;214545;1290;138890;-89
2023/08/29 03:33:49;;;;;;;8.40;4.80;;;;;;;14.15;100.00;99658.91;214093;1290;140945;-90
2023/08/29 03:38:50;;;;;;;8.00;4.10;;;;;;;14.13;100.00;99679.27;214487;1287;138756;-90
2023/08/29 03:43:51;;;;;;;7.70;4.30;;;;;;;14.13;100.00;99674.84;213948;1287;141136;-88
2023/08/29 03:48:52;;;;;;;9.60;4.40;;;;;;;14.13;100.00;99645.02;214380;1286;138852;-89
2023/08/29 03:53:53;;;;;;;9.10;5.40;;;;;;;14.12;100.00;99640.07;214053;1290;140513;-89
2023/08/29 03:58:54;;;;;;;10.00;6.60;;;;;;;14.11;100.00;99627.98;214630;1286;139329;-89
2023/08/29 04:03:55;;;;;;;6.60;4.30;;;;;;;14.09;100.00;99609.60;214122;1291;140754;-88
2023/08/29 04:08:55;;;;;;;6.70;4.60;;;;;;;14.06;100.00;99603.65;214176;1288;139782;-90
2023/08/29 04:13:56;;;;;;;8.00;5.00;;;;;;;14.04;100.00;99586.92;213900;1290;141594;-88
2023/08/29 04:18:56;;;;;;;11.60;5.80;;;;;;;14.04;100.00;99570.80;213970;1291;140810;-88
2023/08/29 04:23:58;;;;;;;9.10;5.80;;;;;;;14.02;100.00;99568.91;213664;1290;141484;-90
2023/08/29 04:28:58;;;;;;;10.10;6.00;;;;;;;14.03;100.00;99605.11;214317;1291;138885;-88
2023/08/29 04:34:00;;;;;;;10.00;6.00;;;;;;;14.05;100.00;99623.18;213667;1291;141564;-89
2023/08/29 04:39:01;;;;;;;9.40;6.20;;;;;;;14.07;100.00;99620.85;214096;1290;140006;-88
2023/08/29 04:44:02;;;;;;;10.10;6.60;;;;;;;14.12;100.00;99622.59;213870;1289;154622;-88
2023/08/29 04:49:03;;;;;;;12.30;7.50;;;;;;;14.15;100.00;99617.32;213621;1291;140961;-87
2023/08/29 04:54:07;;;;;;;11.10;6.80;;;;;;;14.20;100.00;99603.27;214342;1286;138787;-88
2023/08/29 04:59:07;;;;;;;13.60;7.10;;;;;;;14.24;100.00;99604.16;213745;1287;141252;-88
2023/08/29 05:04:12;;;;;;;9.50;6.40;;;;;;;14.29;100.00;99595.68;214296;1286;139431;-87
2023/08/29 05:09:16;;;;;;;12.80;6.20;;;;;;;14.35;100.00;99573.14;213922;1291;141810;-87
2023/08/29 05:14:18;;;;;;;9.40;6.70;;;;;;;14.38;100.00;99561.20;214435;1291;99399;-87
2023/08/29 05:19:19;;;;;;;9.40;5.80;;;;;;;14.43;100.00;99540.86;213712;1291;139823;-88
2023/08/29 05:24:19;;;;;;;11.50;6.30;;;;;;;14.47;100.00;99526.95;214257;1289;138578;-89
2023/08/29 05:29:21;;;;;;;10.60;6.80;;;;;;;14.48;100.00;99498.30;213845;1292;142218;-89
2023/08/29 05:34:21;;;;;;;9.70;6.20;;;;;;;14.49;100.00;99541.32;214541;1286;139055;-88
2023/08/29 05:39:22;;;;;;;10.00;5.30;;;;;;;14.51;100.00;99565.15;213817;1285;140994;-89
2023/08/29 05:44:23;;;;;;;9.00;6.20;;;;;;;14.56;100.00;99579.70;214433;1292;99376;-89
2023/08/29 05:49:23;;;;;;;12.10;6.20;;;;;;;14.65;100.00;99574.72;214102;1289;141186;-89
2023/08/29 05:54:24;;;;;;;9.90;6.40;;;;;;;14.75;100.00;99560.99;214729;1289;139799;-90
2023/08/29 05:59:24;;;;;;;13.00;6.50;;;;;;;14.85;100.00;99570.13;213772;1285;141408;-88
2023/08/29 06:04:25;;;;;;;11.00;6.50;;;;;;;14.94;100.00;99589.17;214669;1285;138839;-90
2023/08/29 06:09:26;;;;;;;10.00;6.00;;;;;;;15.02;100.00;99605.55;214231;1288;140840;-89
2023/08/29 06:14:26;;;;;;;9.40;5.60;;;;;;;15.12;100.00;99620.23;214726;1286;99206;-88
2023/08/29 06:19:27;;;;;;;10.00;5.70;;;;;;;15.24;100.00;99634.48;213972;1291;140434;-87
2023/08/29 06:24:27;;;;;;;11.10;5.90;;;;;;;15.33;100.00;99628.63;214755;1286;139157;-87
2023/08/29 06:29:28;;;;;;;8.70;5.70;;;;;;;15.39;100.00;99606.16;214269;1289;140226;-87
2023/08/29 06:34:29;;;;;;;8.50;5.10;;;;;;;15.43;100.00;99598.46;214766;1292;138840;-87
2023/08/29 06:39:29;;;;;;;7.80;4.70;;;;;;;15.56;100.00;99601.44;214250;1286;141783;-89
2023/08/29 06:44:30;;;;;;;9.50;4.50;;;;;;;15.63;100.00;99611.42;214621;1290;107175;-87
2023/08/29 06:49:31;;;;;;;8.70;4.30;;;;;;;15.70;100.00;99607.85;214150;1286;141919;-86
2023/08/29 06:54:31;;;;;;;7.90;4.20;;;;;;;15.73;100.00;99601.73;214402;1289;139341;-88
2023/08/29 06:59:32;;;;;;;8.00;4.20;;;;;;;15.76;100.00;99604.05;214073;1286;142501;-88
2023/08/29 07:04:32;;;;;;;9.40;4.80;;;;;;;15.82;100.00;99617.01;214584;1290;139003;-88
2023/08/29 07:09:33;;;;;;;8.30;4.80;;;;;;;15.84;100.00;99608.23;214117;1286;140562;-88
2023/08/29 07:14:33;;;;;;;7.60;4.20;;;;;;;15.88;100.00;99586.03;214907;1286;98002;-87
2023/08/29 07:19:34;;;;;;;7.90;4.50;;;;;;;15.89;100.00;99574.52;214297;1287;140855;-88
2023/08/29 07:24:34;;;;;;;8.00;4.80;;;;;;;15.89;100.00;99570.70;214831;1288;138477;-86
2023/08/29 07:29:35;;;;;;;7.10;4.20;;;;;;;15.94;100.00;99580.09;213861;1286;140747;-86
2023/08/29 07:34:39;;;;;;;10.90;5.30;;;;;;;16.00;100.00;99579.00;214621;1288;139225;-86
2023/08/29 07:39:39;;;;;;;8.70;4.80;;;;;;;16.05;100.00;99588.95;214777;1285;139763;-85
2023/08/29 07:44:40;;;;;;;7.80;5.00;;;;;;;16.05;100.00;99595.74;214548;1286;138912;-84
2023/08/29 07:49:41;;;;;;;7.90;5.00;;;;;;;16.12;100.00;99590.91;214260;1286;140764;-85
2023/08/29 07:54:42;;;;;;;9.20;4.40;;;;;;;16.16;100.00;99593.59;214486;1285;139562;-85
2023/08/29 07:59:42;;;;;;;8.00;3.90;;;;;;;16.19;100.00;99599.86;213975;1289;140163;-84
2023/08/29 08:04:42;;;;;;;7.90;4.10;;;;;;;16.24;100.00;99588.29;214296;1287;138817;-84
2023/08/29 08:09:43;;;;;;;12.70;4.50;;;;;;;16.35;100.00;99596.20;213899;1286;140459;-84
2023/08/29 08:14:43;;;;;;;9.20;4.20;;;;;;;16.44;100.00;99591.09;214200;1289;140707;-84
2023/08/29 08:19:51;;;;;;;9.00;5.10;;;;;;;16.53;100.00;99595.59;214088;1286;144266;-84
2023/08/29 08:24:54;;;;;;;8.80;4.40;;;;;;;16.54;100.00;99582.41;214638;1288;138790;-83
2023/08/29 08:29:55;;;;;;;8.80;4.20;;;;;;;16.61;100.00;99571.11;214609;1287;140355;-84
2023/08/29 08:34:56;;;;;;;8.10;4.30;;;;;;;16.67;100.00;99569.04;214970;1288;138684;-83
2023/08/29 08:39:56;;;;;;;8.80;4.10;;;;;;;16.72;100.00;99582.38;214890;1285;141792;-83
2023/08/29 08:44:57;;;;;;;8.30;4.40;;;;;;;16.81;100.00;99595.40;215762;1288;138838;-84
2023/08/29 08:49:58;;;;;;;7.30;4.40;;;;;;;16.89;100.00;99592.01;214856;1288;141261;-84
2023/08/29 08:54:58;;;;;;;7.20;4.30;;;;;;;16.97;100.00;99588.90;215127;1286;138570;-84
2023/08/29 08:59:59;;;;;;;8.20;4.50;;;;;;;17.02;100.00;99592.02;215399;1286;141258;-85
2023/08/29 09:05:00;;;;;;;7.10;4.50;;;;;;;17.07;100.00;99590.37;216142;1286;139501;-84
2023/08/29 09:10:11;;;;;;;9.30;4.40;;;;;;;17.15;100.00;99588.00;214935;1288;141094;-84
2023/08/29 09:15:12;;;;;;;10.30;4.50;;;;;;;17.20;100.00;99580.71;215355;1288;139709;-85
2023/08/29 09:20:16;;;;;;;7.50;4.50;;;;;;;17.26;100.00;99589.50;214971;1286;140697;-85
2023/08/29 09:25:17;;;;;;;11.20;4.80;;;;;;;17.35;100.00;99596.31;215495;1287;138800;-85
2023/08/29 09:30:19;;;;;;;10.80;5.10;;;;;;;17.44;100.00;99609.01;215091;1286;140689;-85
2023/08/29 09:35:22;;;;;;;11.90;5.30;;;;;;;17.49;100.00;99623.81;215181;1285;139112;-86
2023/08/29 09:40:23;;;;;;;10.50;4.90;;;;;;;17.52;100.00;99617.27;215005;1286;140962;-85
2023/08/29 09:45:23;;;;;;;8.20;4.70;;;;;;;17.54;100.00;99618.64;214950;1286;139451;-86
2023/08/29 09:50:25;;;;;;;10.40;4.80;;;;;;;17.57;100.00;99622.05;214664;1285;140409;-86
2023/08/29 09:55:26;;;;;;;9.80;4.80;;;;;;;17.60;100.00;99626.90;215257;1285;138813;-87
2023/08/29 10:00:27;;;;;;;8.40;5.00;;;;;;;17.61;100.00;99634.48;214544;1285;141740;-87
2023/08/29 10:05:33;;;;;;;9.50;5.00;;;;;;;17.61;100.00;99626.61;215235;1285;139417;-86
2023/08/29 10:10:34;;;;;;;11.60;4.90;;;;;;;17.62;100.00;99616.02;214678;1288;141791;-86
2023/08/29 10:15:36;;;;;;;12.00;4.90;;;;;;;17.58;100.00;99622.20;215293;1285;140494;-86
2023/08/29 10:20:37;;;;;;;8.70;4.60;;;;;;;17.59;100.00;99614.20;214735;1286;141127;-86
2023/08/29 10:25:39;;;;;;;10.30;5.10;;;;;;;17.65;100.00;99605.14;215357;1285;99269;-86
2023/08/29 10:30:52;;;;;;;8.50;4.70;;;;;;;17.69;100.00;99606.65;215002;1285;140344;-86
2023/08/29 10:35:53;;;;;;;11.10;5.40;;;;;;;17.75;100.00;99598.20;215512;1285;139666;-86
2023/08/29 10:41:04;;;;;;;10.60;5.10;;;;;;;17.80;100.00;99593.34;214829;1286;140496;-85
2023/08/29 10:46:11;;;;;;;9.50;5.00;;;;;;;17.82;100.00;99601.80;215149;1286;139304;-85
2023/08/29 10:51:19;;;;;;;10.20;4.80;;;;;;;17.82;100.00;99605.38;214783;1289;141603;-86
2023/08/29 10:56:28;;;;;;;7.60;4.50;;;;;;;17.87;100.00;99597.91;215065;1285;265514;-87
2023/08/29 11:01:30;;;;;;;9.30;4.80;;;;;;;17.98;100.00;99597.71;214318;1286;140588;-87
2023/08/29 11:06:52;;;;;;;8.30;4.50;;;;;;;18.11;100.00;99597.29;215287;1289;138555;-88
2023/08/29 11:12:07;;;;;;;9.30;4.90;;;;;;;18.17;100.00;99582.29;214926;1290;140629;-86
2023/08/29 11:17:12;;;;;;;10.30;4.80;;;;;;;18.26;100.00;99563.29;215426;1285;139146;-87
2023/08/29 11:22:13;;;;;;;9.10;5.10;;;;;;;18.37;100.00;99545.02;214483;1286;144295;-88
2023/08/29 11:27:17;;;;;;;9.80;5.40;;;;;;;18.51;100.00;99555.04;215169;1290;139058;-88
2023/08/29 11:32:21;;;;;;;8.90;5.10;;;;;;;18.60;100.00;99563.33;214959;1285;140743;-88
2023/08/29 11:37:29;;;;;;;10.70;4.50;;;;;;;18.69;100.00;99580.20;215277;1286;138537;-86
2023/08/29 11:42:31;;;;;;;8.30;4.50;;;;;;;18.71;100.00;99582.44;214862;1288;140610;-88
2023/08/29 11:47:33;;;;;;;8.60;4.20;;;;;;;18.69;100.00;99579.08;215202;1286;139372;-90
2023/08/29 11:52:35;;;;;;;10.40;4.70;;;;;;;18.77;100.00;99584.22;214631;1287;140052;-89
2023/08/29 11:57:43;;;;;;;9.00;4.20;;;;;;;18.80;100.00;99581.95;215009;1287;138934;-89
2023/08/29 12:02:45;;;;;;;7.40;4.30;;;;;;;18.78;100.00;99584.17;214636;1286;141110;-90
2023/08/29 12:07:57;;;;;;;10.30;4.60;;;;;;;18.72;100.00;99585.73;215278;1288;97851;-89
2023/08/29 12:13:10;;;;;;;9.50;4.60;;;;;;;18.67;100.00;99573.25;214619;1286;140303;-88
2023/08/29 12:18:33;;;;;;;7.90;4.20;;;;;;;18.64;100.00;99572.09;215369;1287;139500;-88
2023/08/29 12:23:34;;;;;;;12.60;6.70;;;;;;;18.62;100.00;99577.34;215591;1287;141465;-88
2023/08/29 12:28:35;;;;;;;9.70;6.20;;;;;;;18.61;100.00;99579.06;215776;1286;139194;-88
2023/08/29 12:33:36;;;;;;;8.80;4.60;;;;;;;18.60;100.00;99575.10;215028;1288;141091;-88
2023/08/29 12:38:36;;;;;;;7.50;4.10;;;;;;;18.57;100.00;99572.34;215890;1285;97628;-89
2023/08/29 12:43:37;;;;;;;7.50;3.80;;;;;;;18.49;100.00;99586.55;214851;1290;138999;-88
2023/08/29 12:48:37;;;;;;;7.60;3.70;;;;;;;18.47;100.00;99597.23;215327;1288;139143;-88
2023/08/29 12:53:39;;;;;;;8.30;4.40;;;;;;;18.45;100.00;99606.25;214726;1286;141731;-89
2023/08/29 12:58:40;;;;;;;9.70;5.20;;;;;;;18.46;100.00;99612.14;215476;1286;138872;-88
2023/08/29 13:03:41;;;;;;;13.20;4.50;;;;;;;18.48;100.00;99604.11;215073;1286;142237;-88
2023/08/29 13:08:41;;;;;;;7.80;4.40;;;;;;;18.47;100.00;99598.71;215610;1288;139047;-88
2023/08/29 13:13:42;;;;;;;9.80;4.10;;;;;;;18.47;100.00;99599.85;214889;1288;140947;-89
2023/08/29 13:18:43;;;;;;;8.80;5.10;;;;;;;18.47;100.00;99571.35;215198;1288;139145;-89
2023/08/29 13:23:44;;;;;;;8.80;4.30;;;;;;;18.47;100.00;99566.45;214549;1285;141111;-86
2023/08/29 13:28:45;;;;;;;7.20;4.10;;;;;;;18.42;100.00;99566.27;215248;1286;139216;-88
2023/08/29 13:33:45;;;;;;;8.70;4.40;;;;;;;18.40;100.00;99557.58;214828;1285;140723;-88
2023/08/29 13:38:46;;;;;;;6.90;4.20;;;;;;;18.41;100.00;99549.00;215099;1288;139214;-88
2023/08/29 13:43:46;;;;;;;7.30;4.20;;;;;;;18.44;100.00;99554.58;214617;1286;141210;-87
2023/08/29 13:48:51;;;;;;;8.50;4.60;;;;;;;18.49;100.00;99548.67;215098;1288;139023;-87
2023/08/29 13:53:52;;;;;;;8.40;5.00;;;;;;;18.52;100.00;99549.52;214576;1285;139903;-88
2023/08/29 13:58:52;;;;;;;7.30;4.50;;;;;;;18.53;100.00;99561.10;215112;1287;139484;-88
2023/08/29 14:03:53;;;;;;;9.00;4.30;;;;;;;18.51;100.00;99566.91;214939;1287;140955;-88
2023/08/29 14:08:53;;;;;;;11.90;4.40;;;;;;;18.53;100.00;99573.82;215490;1287;138897;-87
2023/08/29 14:13:54;;;;;;;6.10;3.70;;;;;;;18.55;100.00;99573.75;215579;1285;141149;-88
2023/08/29 14:18:54;;;;;;;8.30;4.30;;;;;;;18.58;100.00;99567.67;215290;1286;138661;-88
2023/08/29 14:23:55;;;;;;;9.20;4.70;;;;;;;18.62;100.00;99559.51;214830;1285;142258;-88
2023/08/29 14:28:55;;;;;;;7.30;4.00;;;;;;;18.63;100.00;99554.38;215336;1286;139529;-88
2023/08/29 14:33:56;;;;;;;8.20;4.90;;;;;;;18.63;100.00;99543.55;214675;1286;140527;-87
2023/08/29 14:38:57;;;;;;;9.30;4.90;;;;;;;18.60;100.00;99542.70;215447;1288;139727;-88
2023/08/29 14:43:57;;;;;;;8.90;4.50;;;;;;;18.60;100.00;99535.71;214900;1286;140784;-88
2023/08/29 14:48:58;;;;;;;7.90;5.00;;;;;;;18.60;100.00;99540.14;215729;1285;138654;-88
2023/08/29 14:54:03;;;;;;;8.50;4.40;;;;;;;18.58;100.00;99542.77;215140;1285;140706;-89
2023/08/29 14:59:05;;;;;;;9.30;5.40;;;;;;;18.50;100.00;99563.19;215088;1285;140493;-90
2023/08/29 15:04:06;;;;;;;8.40;4.70;;;;;;;18.42;100.00;99567.39;215419;1285;139208;-90
2023/08/29 15:09:08;;;;;;;11.70;5.70;;;;;;;18.42;100.00;99577.86;214815;1286;141361;-89
2023/08/29 15:14:08;;;;;;;11.10;5.40;;;;;;;18.35;100.00;99590.45;215566;1286;97887;-89
2023/08/29 15:19:09;;;;;;;14.20;5.30;;;;;;;18.35;100.00;99604.73;215444;1285;140645;-90
2023/08/29 15:24:09;;;;;;;11.60;5.50;;;;;;;18.31;100.00;99597.02;215812;1286;138916;-92
2023/08/29 15:29:11;;;;;;;9.50;5.10;;;;;;;18.27;100.00;99583.79;214986;1285;141717;-91
2023/08/29 15:34:13;;;;;;;8.80;4.70;;;;;;;18.28;100.00;99582.62;215328;1286;138705;-91
2023/08/29 15:39:14;;;;;;;9.30;4.90;;;;;;;18.30;100.00;99579.39;215259;1286;141865;-93
2023/08/29 15:44:15;;;;;;;12.80;6.30;;;;;;;18.28;100.00;99577.46;216736;1285;105551;-93
2023/08/29 15:49:16;;;;;;;9.20;5.20;;;;;;;18.25;100.00;99570.95;215026;1285;141325;-92
2023/08/29 15:54:17;;;;;;;12.70;7.30;;;;;;;18.24;100.00;99562.21;215779;1288;138545;-92
2023/08/29 15:59:18;;;;;;;15.70;7.90;;;;;;;18.26;100.00;99561.70;215356;1286;140927;-93
2023/08/29 16:04:19;;;;;;;11.80;7.40;;;;;;;18.22;100.00;99554.43;215740;1285;138838;-92
2023/08/29 16:09:20;;;;;;;10.60;6.50;;;;;;;18.18;100.00;99548.69;215036;1285;140811;-91
2023/08/29 16:14:21;;;;;;;11.90;6.30;;;;;;;18.14;100.00;99531.48;215498;1286;105835;-90
2023/08/29 16:19:22;;;;;;;10.80;6.50;;;;;;;18.11;100.00;99523.77;215181;1285;141020;-89
2023/08/29 16:24:25;;;;;;;11.70;7.00;;;;;;;18.09;100.00;99524.31;215398;1285;140028;-91
2023/08/29 16:29:26;;;;;;;11.90;6.50;;;;;;;18.05;100.00;99525.23;214658;1288;142001;-90
2023/08/29 16:34:26;;;;;;;11.40;6.80;;;;;;;18.04;100.00;99536.51;215666;1286;139102;-90
2023/08/29 16:39:28;;;;;;;12.10;6.80;;;;;;;18.01;100.00;99545.52;215060;1288;144737;-90
2023/08/29 16:44:28;;;;;;;10.60;6.10;;;;;;;17.96;100.00;99553.40;215760;1286;98212;-90
2023/08/29 16:49:29;;;;;;;17.00;7.10;;;;;;;17.93;100.00;99556.27;214698;1285;140910;-90
2023/08/29 16:54:29;;;;;;;13.30;7.00;;;;;;;17.89;100.00;99554.48;214920;1286;139325;-90
2023/08/29 16:59:31;;;;;;;12.70;7.50;;;;;;;17.82;100.00;99548.58;214785;1286;140834;-91
2023/08/29 17:04:32;;;;;;;10.90;8.00;;;;;;;17.80;100.00;99550.33;215332;1285;139829;-92
2023/08/29 17:09:32;;;;;;;13.70;7.80;;;;;;;17.75;100.00;99547.39;215651;1286;141150;-92
2023/08/29 17:14:33;;;;;;;11.70;7.50;;;;;;;17.74;100.00;99552.27;215799;1286;101561;-92
2023/08/29 17:19:34;;;;;;;13.80;8.30;;;;;;;17.71;100.00;99549.59;215253;1285;140253;-91
2023/08/29 17:24:38;;;;;;;13.00;8.80;;;;;;;17.70;100.00;99536.98;215397;1285;138806;-92
2023/08/29 17:29:39;;;;;;;15.70;9.50;;;;;;;17.67;100.00;99532.95;214855;1286;140304;-92
2023/08/29 17:34:42;;;;;;;16.50;9.90;;;;;;;17.65;100.00;99545.16;215474;1286;138845;-91
2023/08/29 17:39:42;;;;;;;14.80;9.10;;;;;;;17.62;100.00;99545.50;215329;1286;139904;-91
2023/08/29 17:44:45;;;;;;;14.70;10.10;;;;;;;17.60;100.00;99537.20;215789;1286;139175;-90
2023/08/29 17:49:46;;;;;;;13.40;8.70;;;;;;;17.57;100.00;99527.86;215638;1288;141214;-91
2023/08/29 17:54:46;;;;;;;14.50;9.40;;;;;;;17.56;100.00;99526.52;215387;1287;138709;-92
2023/08/29 17:59:49;;;;;;;14.30;8.70;;;;;;;17.55;100.00;99531.98;214963;1288;141971;-91
2023/08/29 18:04:50;;;;;;;15.40;8.40;;;;;;;17.53;100.00;99535.21;215478;1286;139977;-91
2023/08/29 18:10:13;;;;;;;16.50;9.90;;;;;;;17.52;100.00;99532.31;215188;1287;141727;-91
2023/08/29 18:15:17;;;;;;;14.80;10.10;;;;;;;17.49;100.00;99537.88;215305;1287;138852;-90
2023/08/29 18:20:17;;;;;;;17.90;11.30;;;;;;;17.48;100.00;99545.64;215044;1286;140752;-91
2023/08/29 18:25:18;;;;;;;16.60;10.50;;;;;;;17.49;100.00;99551.73;216262;1286;139096;-90
2023/08/29 18:30:18;;;;;;;16.60;9.90;;;;;;;17.47;100.00;99550.44;215640;1286;141772;-90
2023/08/29 18:35:19;;;;;;;23.00;13.60;;;;;;;17.44;100.00;99554.02;216027;1286;140352;-91
2023/08/29 18:40:20;;;;;;;34.20;21.10;;;;;;;17.43;100.00;99557.79;215116;1288;141344;-90
2023/08/29 18:45:22;;;;;;;26.00;14.40;;;;;;;17.40;100.00;99557.79;215734;1289;140273;-90
2023/08/29 18:50:26;;;;;;;16.90;12.10;;;;;;;17.38;100.00;99557.04;215496;1287;141994;-90
2023/08/29 18:55:27;;;;;;;18.40;11.90;;;;;;;17.37;100.00;99564.46;215655;1288;139868;-90
2023/08/29 19:00:28;;;;;;;19.80;12.80;;;;;;;17.36;100.00;99572.76;215139;1288;141121;-90
2023/08/29 19:05:31;;;;;;;21.50;13.40;;;;;;;17.35;100.00;99576.67;217170;1286;139106;-89
2023/08/29 19:10:32;;;;;;;18.00;11.40;;;;;;;17.32;100.00;99586.95;215344;1290;142052;-91
2023/08/29 19:15:33;;;;;;;19.60;12.60;;;;;;;17.26;100.00;99600.15;215621;1289;139072;-90
2023/08/29 19:20:34;;;;;;;20.30;11.20;;;;;;;17.21;100.00;99599.58;214936;1289;141237;-89
2023/08/29 19:25:35;;;;;;;16.40;11.20;;;;;;;17.19;100.00;99600.59;215264;1288;139517;-90
2023/08/29 19:30:36;;;;;;;16.30;10.10;;;;;;;17.18;100.00;99587.92;215245;1287;141131;-90
2023/08/29 19:35:38;;;;;;;16.40;11.20;;;;;;;17.16;100.00;99581.68;215864;1288;139079;-91
2023/08/29 19:40:38;;;;;;;17.20;11.00;;;;;;;17.15;100.00;99585.60;216957;1287;141346;-90
2023/08/29 19:45:39;;;;;;;20.80;11.30;;;;;;;17.13;100.00;99578.42;215715;1287;139177;-91
2023/08/29 19:50:41;;;;;;;26.40;13.60;;;;;;;17.13;100.00;99577.97;215168;1288;141826;-90
2023/08/29 19:55:41;;;;;;;15.70;11.30;;;;;;;17.08;100.00;99565.96;215824;1285;96994;-90
2023/08/29 20:00:42;;;;;;;18.40;11.40;;;;;;;17.08;100.00;99551.66;215082;1290;141442;-92
2023/08/29 20:05:47;;;;;;;18.00;12.20;;;;;;;17.09;100.00;99541.84;215267;1288;139234;-88
2023/08/29 20:10:51;;;;;;;19.30;12.20;;;;;;;17.08;100.00;99530.59;215265;1288;140245;-90
2023/08/29 20:15:52;;;;;;;22.20;11.60;;;;;;;17.07;100.00;99533.89;216004;1286;139515;-91
2023/08/29 20:20:53;;;;;;;14.80;10.20;;;;;;;17.04;100.00;99523.03;215422;1286;141002;-93
2023/08/29 20:25:54;;;;;;;14.30;9.60;;;;;;;17.04;100.00;99508.58;217619;1288;96167;-93
2023/08/29 20:30:56;;;;;;;19.30;11.40;;;;;;;17.04;100.00;99499.77;214491;1288;140971;-92
2023/08/29 20:36:00;;;;;;;16.00;9.60;;;;;;;17.03;100.00;99492.31;215729;1288;139714;-92
2023/08/29 20:41:04;;;;;;;14.50;9.30;;;;;;;17.03;100.00;99485.33;214452;1290;140773;-92
2023/08/29 20:46:05;;;;;;;14.30;8.80;;;;;;;17.03;100.00;99483.04;217516;1290;137882;-92
2023/08/29 20:51:05;;;;;;;13.40;8.90;;;;;;;17.02;100.00;99485.91;214601;1288;140596;-91
2023/08/29 20:56:06;;;;;;;13.60;8.70;;;;;;;17.00;100.00;99487.80;215387;1290;97901;-92
2023/08/29 21:01:07;;;;;;;13.30;8.90;;;;;;;16.99;100.00;99489.58;214842;1288;140821;-91
2023/08/29 21:06:08;;;;;;;14.40;9.00;;;;;;;16.97;100.00;99493.82;215489;1288;138843;-92
2023/08/29 21:11:09;;;;;;;15.50;8.50;;;;;;;16.96;100.00;99500.23;214819;1287;139731;-93
2023/08/29 21:16:10;;;;;;;14.70;8.70;;;;;;;16.94;100.00;99513.46;215573;1286;138961;-92
2023/08/29 21:21:10;;;;;;;14.50;7.60;;;;;;;16.92;100.00;99514.86;216923;1286;140161;-91
2023/08/29 21:26:11;;;;;;;10.00;5.40;;;;;;;16.92;100.00;99515.38;216140;1286;98335;-93
2023/08/29 21:31:16;;;;;;;8.60;4.10;;;;;;;16.88;100.00;99517.45;214662;1286;139822;-92
2023/08/29 21:36:17;;;;;;;8.40;4.00;;;;;;;16.87;100.00;99518.44;215571;1288;138872;-94
2023/08/29 21:41:18;;;;;;;9.50;4.70;;;;;;;16.87;100.00;99525.67;217097;1288;142262;-92
2023/08/29 21:46:18;;;;;;;8.60;4.80;;;;;;;16.87;100.00;99526.79;215620;1289;139118;-92
2023/08/29 21:51:26;;;;;;;10.00;5.70;;;;;;;16.87;100.00;99526.31;215787;1285;139784;-94
2023/08/29 21:56:29;;;;;;;11.50;5.60;;;;;;;16.86;100.00;99537.38;215751;1288;110082;-91
2023/08/29 22:01:30;;;;;;;11.10;4.80;;;;;;;16.82;100.00;99544.00;214745;1290;140587;-91
2023/08/29 22:06:30;;;;;;;10.30;5.90;;;;;;;16.78;100.00;99548.71;215575;1288;138816;-91
2023/08/29 22:11:32;;;;;;;11.90;5.20;;;;;;;16.74;100.00;99557.01;214501;1286;140606;-90
2023/08/29 22:16:34;;;;;;;11.40;5.60;;;;;;;16.71;100.00;99566.69;214860;1286;139522;-90
2023/08/29 22:21:34;;;;;;;9.00;4.70;;;;;;;16.70;100.00;99555.86;214154;1286;141044;-90
2023/08/29 22:26:35;;;;;;;9.10;4.80;;;;;;;16.70;100.00;99542.91;214836;1285;98635;-91
2023/08/29 22:31:35;;;;;;;10.40;4.60;;;;;;;16.69;100.00;99531.36;214443;1288;140237;-92
2023/08/29 22:36:36;;;;;;;9.70;5.30;;;;;;;16.68;100.00;99529.08;214915;1289;139630;-90
2023/08/29 22:41:36;;;;;;;9.00;4.90;;;;;;;16.66;100.00;99523.33;214476;1290;140404;-92